createdAt,value
2022-10-22T00:03:56.765Z,19
2022-10-22T00:09:57.262Z,21.2
2022-10-22T00:15:49.516Z,19.6
2022-10-22T00:21:41.290Z,23
2022-10-22T00:27:33.207Z,24.9
2022-10-22T00:33:23.947Z,26.7
2022-10-22T00:39:15.217Z,26.5
2022-10-22T00:45:07.082Z,23.9
2022-10-22T00:51:10.022Z,24.1
2022-10-22T00:57:01.358Z,20.8
2022-10-22T01:02:56.251Z,24.2
2022-10-22T01:08:51.003Z,21.1
2022-10-22T01:14:50.205Z,26.7
2022-10-22T01:20:46.518Z,23.5
2022-10-22T01:26:45.767Z,23.1
2022-10-22T01:32:52.556Z,22.6
2022-10-22T01:38:57.062Z,18.8
2022-10-22T01:44:53.797Z,19.8
2022-10-22T01:50:48.197Z,23.3
2022-10-22T01:56:44.768Z,23.2
2022-10-22T02:02:40.236Z,20.6
2022-10-22T02:08:44.991Z,22.3
2022-10-22T02:14:36.018Z,24.5
2022-10-22T02:20:27.442Z,18.8
2022-10-22T02:26:19.034Z,21.5
2022-10-22T02:32:10.428Z,22.2
2022-10-22T02:38:02.057Z,22.7
2022-10-22T02:43:54.213Z,23.2
2022-10-22T02:49:45.136Z,22.8
2022-10-22T02:55:36.843Z,18.8
2022-10-22T03:01:30.130Z,23.5
2022-10-22T03:07:21.683Z,24.4
2022-10-22T03:13:12.686Z,25.2
2022-10-22T03:19:04.836Z,30.5
2022-10-22T03:24:56.371Z,24.9
2022-10-22T03:30:47.710Z,25
2022-10-22T03:36:38.925Z,31.2
2022-10-22T03:42:32.885Z,25.3
2022-10-22T03:48:25.270Z,26.1
2022-10-22T03:54:21.644Z,26.1
2022-10-22T04:00:13.581Z,26.4
2022-10-22T04:06:05.328Z,28.2
2022-10-22T04:12:05.287Z,26.2
2022-10-22T04:18:10.084Z,26
2022-10-22T04:24:13.640Z,25.4
2022-10-22T04:30:11.092Z,24.4
2022-10-22T04:36:01.971Z,30.2
2022-10-22T04:42:09.451Z,25
2022-10-22T04:48:02.793Z,29.9
2022-10-22T04:54:06.385Z,25.8
2022-10-22T05:00:08.963Z,25.5
2022-10-22T05:05:58.485Z,20.8
2022-10-22T05:11:50.904Z,21.4
2022-10-22T05:17:40.898Z,21.1
2022-10-22T05:23:33.544Z,20.3
2022-10-22T05:29:24.620Z,22.2
2022-10-22T05:35:14.894Z,22.7
2022-10-22T05:41:08.943Z,23.8
2022-10-22T05:46:59.839Z,22.3
2022-10-22T05:52:53.693Z,22.6
2022-10-22T05:58:44.726Z,22.6
2022-10-22T06:04:36.189Z,22.3
2022-10-22T06:10:28.538Z,18.3
2022-10-22T06:16:20.206Z,22.5
2022-10-22T06:22:13.369Z,20.3
2022-10-22T06:29:13.185Z,17.7
2022-10-22T06:35:02.961Z,17.7
2022-10-22T06:40:55.560Z,21.2
2022-10-22T06:46:48.395Z,18.8
2022-10-22T06:52:38.728Z,17.4
2022-10-22T06:58:29.277Z,16.8
2022-10-22T07:04:19.734Z,16.2
2022-10-22T07:10:10.996Z,17.7
2022-10-22T07:16:01.613Z,18.3
2022-10-22T07:21:51.152Z,17.4
2022-10-22T07:27:41.131Z,18.1
2022-10-22T07:33:32.612Z,18.2
2022-10-22T07:39:23.562Z,15.4
2022-10-22T07:45:14.926Z,17.2
2022-10-22T07:51:06.280Z,15.8
2022-10-22T07:56:55.129Z,16.3
2022-10-22T08:02:46.989Z,14.3
2022-10-22T08:08:37.379Z,12.5
2022-10-22T08:21:18.009Z,13.2
2022-10-22T08:27:11.602Z,12.3
2022-10-22T08:33:06.173Z,13.5
2022-10-22T08:39:01.910Z,13.5
2022-10-22T08:45:08.186Z,13.6
2022-10-22T08:51:29.981Z,13.3
2022-10-22T08:58:04.931Z,12.1
2022-10-22T09:03:59.092Z,16.2
2022-10-22T09:10:00.148Z,15.8
2022-10-22T09:16:14.581Z,12.8
2022-10-22T09:22:08.294Z,8.2
2022-10-22T09:28:07.616Z,10.6
2022-10-22T09:34:15.940Z,11.9
2022-10-22T09:40:30.293Z,10.6
2022-10-22T09:46:34.469Z,9.5
2022-10-22T09:52:26.261Z,7.7
2022-10-22T09:58:19.140Z,6.7
2022-10-22T10:04:15.469Z,11.2
2022-10-22T10:10:07.285Z,5.9
2022-10-22T10:16:01.287Z,10.7
2022-10-22T10:21:53.131Z,7.1
2022-10-22T10:27:49.579Z,7.4
2022-10-22T10:33:45.008Z,6.1
2022-10-22T10:39:39.518Z,6.7
2022-10-22T10:45:29.998Z,9.6
2022-10-22T10:51:23.001Z,8.9
2022-10-22T10:57:15.628Z,8.8
2022-10-22T11:03:07.075Z,5.6
2022-10-22T11:09:00.216Z,8.1
2022-10-22T11:14:53.476Z,7
2022-10-22T11:20:49.694Z,7.3
2022-10-22T11:26:51.445Z,4.7
2022-10-22T11:39:28.731Z,6.4
2022-10-22T11:45:50.267Z,5.9
2022-10-22T11:52:00.703Z,5.1
2022-10-22T13:11:00.905Z,6
2022-10-22T13:41:54.963Z,5.2
2022-10-22T13:48:23.658Z,6.8
2022-10-22T13:54:23.242Z,6.4
2022-10-22T14:00:23.218Z,6.2
2022-10-22T14:06:32.168Z,5.2
2022-10-22T14:12:27.916Z,6
2022-10-22T14:18:33.947Z,6.5
2022-10-22T14:24:26.818Z,8.5
2022-10-22T14:30:19.409Z,6
2022-10-22T14:36:27.663Z,6.2
2022-10-22T14:42:17.865Z,7.2
2022-10-22T14:48:11.032Z,7
2022-10-22T14:54:02.909Z,6.3
2022-10-22T15:00:00.703Z,7.5
2022-10-22T15:05:52.638Z,5.8
2022-10-22T15:11:45.400Z,7.4
2022-10-22T15:17:41.978Z,6.5
2022-10-22T15:23:32.056Z,6.6
2022-10-22T15:29:22.354Z,8.4
2022-10-22T15:35:12.279Z,11.2
2022-10-22T15:41:08.977Z,9.6
2022-10-22T15:46:58.511Z,12.2
2022-10-22T15:52:48.852Z,9.6
2022-10-22T15:58:38.864Z,21.5
2022-10-22T16:04:29.177Z,17.1
2022-10-22T16:10:19.883Z,13.8
2022-10-22T16:16:10.014Z,12.7
2022-10-22T16:22:00.885Z,9.1
2022-10-22T16:27:51.403Z,10.6
2022-10-22T16:33:53.799Z,13.1
2022-10-22T16:39:45.024Z,18.5
2022-10-22T16:45:36.402Z,13.8
2022-10-22T16:51:27.143Z,8.1
2022-10-22T16:57:18.133Z,13
2022-10-22T17:03:11.337Z,13.1
2022-10-22T17:09:01.258Z,9.6
2022-10-22T17:14:52.316Z,16
2022-10-22T17:20:42.019Z,12.9
2022-10-22T17:26:31.819Z,10.8
2022-10-22T17:32:21.703Z,17.1
2022-10-22T17:38:12.367Z,11.1
2022-10-22T17:44:02.307Z,15.3
2022-10-22T17:49:51.908Z,15.5
2022-10-22T17:55:42.221Z,12.5
2022-10-22T18:01:31.781Z,11.8
2022-10-22T18:07:22.945Z,14.7
2022-10-22T18:13:13.454Z,10.8
2022-10-22T18:19:03.976Z,12.6
2022-10-22T18:24:54.540Z,13.8
2022-10-22T18:30:51.474Z,17.7
2022-10-22T18:36:42.972Z,16.7
2022-10-22T18:42:41.795Z,12.2
2022-10-22T18:48:32.238Z,14.1
2022-10-22T18:54:28.513Z,15.5
2022-10-22T19:00:17.468Z,12.1
2022-10-22T19:06:07.577Z,10.7
2022-10-22T19:11:56.923Z,10.6
2022-10-22T19:17:47.351Z,10.8
2022-10-22T19:23:40.002Z,15.1
2022-10-22T19:29:30.423Z,14.9
2022-10-22T19:35:20.169Z,11.9
2022-10-22T19:41:10.611Z,13.1
2022-10-22T19:47:00.980Z,10.5
2022-10-22T19:52:52.203Z,14.6
2022-10-22T19:58:42.499Z,15.9
2022-10-22T20:04:31.810Z,10.6
2022-10-22T20:10:22.765Z,11.3
2022-10-22T20:16:11.022Z,13.1
2022-10-22T20:22:00.395Z,13.4
2022-10-22T20:27:49.180Z,16.5
2022-10-22T20:33:40.504Z,12.7
2022-10-22T20:39:31.038Z,15.6
2022-10-22T20:45:21.190Z,14.6
2022-10-22T20:51:10.181Z,13.3
2022-10-22T20:57:00.276Z,12.8
2022-10-22T21:02:51.031Z,14.2
2022-10-22T21:08:42.756Z,13.4
2022-10-22T21:14:34.185Z,16.2
2022-10-22T21:20:28.434Z,12.2
2022-10-22T21:26:17.956Z,14
2022-10-22T21:32:08.901Z,13.2
2022-10-22T21:37:59.738Z,15.7
2022-10-22T21:43:51.590Z,13.4
2022-10-22T21:49:42.303Z,13.9
2022-10-22T21:55:32.970Z,12
2022-10-22T22:01:24.598Z,13
2022-10-22T22:07:16.785Z,16.3
2022-10-22T22:13:07.950Z,15.1
2022-10-22T22:18:57.593Z,12.6
2022-10-22T22:24:48.142Z,16
2022-10-22T22:30:37.960Z,13.6
2022-10-22T22:36:29.176Z,13.8
2022-10-22T22:42:20.840Z,15
2022-10-22T22:48:09.981Z,11.8
2022-10-22T22:54:01.246Z,14.1
2022-10-22T22:59:53.646Z,12.9
2022-10-22T23:05:45.551Z,10.2
2022-10-22T23:11:42.333Z,15.5
2022-10-22T23:23:24.840Z,15.5
2022-10-22T23:29:15.725Z,12.8
2022-10-22T23:35:08.346Z,12.8
2022-10-22T23:40:59.245Z,13.3
2022-10-22T23:46:50.184Z,14.1
2022-10-22T23:52:42.315Z,13.9
2022-10-22T23:58:34.312Z,14
